createdAt,value
2019-05-25T00:00:47.230Z,69.50
2019-05-25T00:03:16.170Z,69.90
2019-05-25T00:05:45.062Z,69.80
2019-05-25T00:08:13.993Z,69.70
2019-05-25T00:10:43.089Z,69.70
2019-05-25T00:13:12.039Z,69.80
2019-05-25T00:15:40.920Z,70.00
2019-05-25T00:18:10.044Z,70.90
2019-05-25T00:20:38.924Z,71.50
2019-05-25T00:23:07.850Z,71.60
2019-05-25T00:25:36.735Z,72.30
2019-05-25T00:28:05.672Z,72.80
2019-05-25T00:30:34.561Z,73.10
2019-05-25T00:33:03.508Z,72.70
2019-05-25T00:35:32.402Z,72.90
2019-05-25T00:38:01.379Z,72.80
2019-05-25T00:40:30.255Z,73.10
2019-05-25T00:42:59.183Z,73.00
2019-05-25T00:45:28.060Z,72.90
2019-05-25T00:47:56.984Z,72.90
2019-05-25T00:50:25.875Z,73.20
2019-05-25T00:52:54.819Z,73.50
2019-05-25T00:55:23.705Z,73.30
2019-05-25T00:57:53.130Z,73.70
2019-05-25T01:00:22.107Z,73.90
2019-05-25T01:02:51.054Z,74.20
2019-05-25T01:05:19.930Z,74.00
2019-05-25T01:07:48.849Z,74.10
2019-05-25T01:10:18.125Z,73.90
2019-05-25T01:12:47.147Z,75.00
2019-05-25T01:15:16.431Z,74.90
2019-05-25T01:17:45.348Z,74.90
2019-05-25T01:20:14.841Z,74.70
2019-05-25T01:22:43.765Z,74.70
2019-05-25T01:25:13.658Z,75.90
2019-05-25T01:27:42.587Z,74.80
2019-05-25T01:30:12.476Z,74.80
2019-05-25T01:32:41.407Z,74.70
2019-05-25T01:35:10.384Z,74.70
2019-05-25T01:37:39.388Z,75.10
2019-05-25T01:40:08.907Z,73.90
2019-05-25T01:42:37.788Z,73.60
2019-05-25T01:45:07.226Z,73.90
2019-05-25T01:47:36.102Z,73.80
2019-05-25T01:50:07.033Z,73.70
2019-05-25T01:52:35.921Z,73.00
2019-05-25T01:55:05.856Z,72.60
2019-05-25T01:57:34.734Z,72.70
2019-05-25T02:00:04.860Z,71.90
2019-05-25T02:02:33.744Z,72.10
2019-05-25T02:05:02.685Z,72.10
2019-05-25T02:07:31.573Z,71.70
2019-05-25T02:10:00.512Z,72.40
2019-05-25T02:12:29.393Z,73.20
2019-05-25T02:14:58.319Z,73.80
2019-05-25T02:17:27.196Z,73.50
2019-05-25T02:19:56.129Z,73.20
2019-05-25T02:22:25.027Z,73.60
2019-05-25T02:24:53.943Z,73.80
2019-05-25T02:27:22.832Z,73.70
2019-05-25T02:29:51.767Z,73.80
2019-05-25T02:32:20.635Z,74.10
2019-05-25T02:34:49.572Z,73.60
2019-05-25T02:37:18.447Z,73.40
2019-05-25T02:39:47.377Z,73.20
2019-05-25T02:42:16.255Z,72.90
2019-05-25T02:44:45.205Z,73.50
2019-05-25T02:47:14.085Z,73.10
2019-05-25T02:49:43.014Z,73.30
2019-05-25T02:52:11.908Z,72.80
2019-05-25T02:54:40.829Z,72.70
2019-05-25T02:57:09.708Z,72.70
2019-05-25T02:59:38.640Z,72.70
2019-05-25T03:02:07.523Z,73.50
2019-05-25T03:04:36.431Z,73.20
2019-05-25T03:07:05.316Z,73.30
2019-05-25T03:09:36.239Z,73.60
2019-05-25T03:12:05.125Z,73.80
2019-05-25T03:14:34.044Z,73.40
2019-05-25T03:17:02.937Z,73.40
2019-05-25T03:19:31.851Z,73.50
2019-05-25T03:22:00.796Z,73.80
2019-05-25T03:24:29.680Z,73.80
2019-05-25T03:26:58.607Z,73.10
2019-05-25T03:29:28.376Z,73.50
2019-05-25T03:31:57.298Z,74.80
2019-05-25T03:34:27.760Z,74.80
2019-05-25T03:36:56.683Z,74.30
2019-05-25T03:39:25.571Z,73.30
2019-05-25T03:41:54.511Z,73.30
2019-05-25T03:44:23.402Z,74.10
2019-05-25T03:46:52.330Z,74.50
2019-05-25T03:49:21.203Z,74.70
2019-05-25T03:51:50.137Z,74.00
2019-05-25T03:54:19.020Z,73.90
2019-05-25T03:56:47.944Z,73.80
2019-05-25T03:59:16.823Z,73.80
2019-05-25T04:01:45.763Z,73.80
2019-05-25T04:04:14.652Z,74.60
2019-05-25T04:06:43.629Z,73.90
2019-05-25T04:09:12.488Z,74.00
2019-05-25T04:11:41.420Z,74.60
2019-05-25T04:14:10.308Z,74.50
2019-05-25T04:16:39.240Z,74.30
2019-05-25T04:19:08.125Z,73.50
2019-05-25T04:21:37.046Z,71.20
2019-05-25T04:24:06.331Z,69.20
2019-05-25T04:26:35.269Z,68.00
2019-05-25T04:29:04.255Z,67.30
2019-05-25T04:31:33.177Z,67.10
2019-05-25T04:34:02.053Z,66.80
2019-05-25T04:36:31.040Z,67.10
2019-05-25T04:38:59.970Z,66.80
2019-05-25T04:41:28.910Z,67.10
2019-05-25T04:43:57.802Z,66.90
2019-05-25T04:46:26.715Z,66.90
2019-05-25T04:48:55.596Z,66.80
2019-05-25T04:51:24.528Z,67.50
2019-05-25T04:53:53.425Z,66.90
2019-05-25T04:56:38.231Z,66.80
2019-05-25T04:58:52.885Z,67.30
2019-05-25T05:01:22.553Z,66.90
2019-05-25T05:03:51.685Z,66.80
2019-05-25T05:06:20.611Z,68.00
2019-05-25T05:08:49.539Z,67.60
2019-05-25T05:11:18.436Z,67.30
2019-05-25T05:13:47.366Z,67.30
2019-05-25T05:16:16.261Z,66.00
2019-05-25T05:18:45.182Z,65.40
2019-05-25T05:21:14.076Z,65.90
2019-05-25T05:23:42.997Z,64.30
2019-05-25T05:26:11.893Z,64.90
2019-05-25T05:28:40.829Z,65.30
2019-05-25T05:31:22.835Z,64.90
2019-05-25T05:33:40.310Z,63.40
2019-05-25T05:36:11.510Z,60.80
2019-05-25T05:38:41.388Z,60.40
2019-05-25T05:41:10.491Z,59.40
2019-05-25T05:43:41.723Z,58.20
2019-05-25T05:46:12.068Z,58.20
2019-05-25T05:48:43.202Z,58.30
2019-05-25T05:51:14.245Z,57.30
2019-05-25T05:53:45.241Z,57.10
2019-05-25T05:56:14.124Z,56.40
2019-05-25T05:58:43.044Z,56.00
2019-05-25T06:01:11.925Z,57.30
2019-05-25T06:03:40.845Z,57.40
2019-05-25T06:06:09.730Z,57.60
2019-05-25T06:08:38.660Z,57.10
2019-05-25T06:11:07.537Z,56.60
2019-05-25T06:13:36.476Z,56.20
2019-05-25T06:16:05.360Z,57.00
2019-05-25T06:18:34.305Z,57.70
2019-05-25T06:21:03.193Z,57.70
2019-05-25T06:23:34.002Z,58.40
2019-05-25T06:26:04.236Z,58.10
2019-05-25T06:28:33.160Z,57.60
2019-05-25T06:31:02.231Z,57.80
2019-05-25T06:33:31.159Z,57.60
2019-05-25T06:36:00.045Z,57.40
2019-05-25T06:38:28.975Z,56.60
2019-05-25T06:40:57.887Z,56.00
2019-05-25T06:43:26.803Z,55.10
2019-05-25T06:45:55.700Z,57.00
2019-05-25T06:48:24.589Z,57.10
2019-05-25T06:50:55.093Z,56.40
2019-05-25T06:53:23.975Z,55.50
2019-05-25T06:55:52.907Z,56.40
2019-05-25T06:58:21.799Z,55.20
2019-05-25T07:00:50.851Z,54.00
2019-05-25T07:03:19.741Z,56.00
2019-05-25T07:05:48.673Z,56.00
2019-05-25T07:08:19.027Z,56.00
2019-05-25T07:10:47.969Z,55.20
2019-05-25T07:13:16.868Z,54.80
2019-05-25T07:15:45.806Z,53.60
2019-05-25T07:18:14.705Z,55.70
2019-05-25T07:20:43.624Z,55.90
2019-05-25T07:23:12.525Z,55.50
2019-05-25T07:25:41.468Z,54.40
2019-05-25T07:28:10.358Z,54.10
2019-05-25T07:30:39.301Z,53.90
2019-05-25T07:33:08.192Z,54.00
2019-05-25T07:35:40.892Z,53.20
2019-05-25T07:38:09.848Z,53.20
2019-05-25T07:40:38.772Z,52.50
2019-05-25T07:43:07.670Z,52.60
2019-05-25T07:45:36.597Z,51.80
2019-05-25T07:48:05.583Z,52.30
2019-05-25T07:50:34.524Z,51.50
2019-05-25T07:53:03.408Z,50.30
2019-05-25T07:55:32.368Z,51.40
2019-05-25T07:58:15.755Z,52.20
2019-05-25T08:00:31.858Z,49.50
2019-05-25T08:03:00.758Z,48.20
2019-05-25T08:05:29.676Z,49.40
2019-05-25T08:07:58.612Z,47.60
2019-05-25T08:10:28.598Z,47.40
2019-05-25T08:12:57.493Z,45.40
2019-05-25T08:15:26.442Z,45.40
2019-05-25T08:17:55.342Z,47.10
2019-05-25T08:20:24.264Z,46.60
2019-05-25T08:22:53.505Z,46.10
2019-05-25T08:25:22.434Z,45.70
2019-05-25T08:27:51.329Z,43.70
2019-05-25T08:30:20.265Z,44.40
2019-05-25T08:32:49.145Z,45.30
2019-05-25T08:35:18.187Z,44.60
2019-05-25T08:37:47.076Z,42.70
2019-05-25T08:40:16.879Z,43.00
2019-05-25T08:42:45.763Z,44.50
2019-05-25T08:45:14.942Z,43.20
2019-05-25T08:47:43.876Z,42.30
2019-05-25T08:50:12.958Z,44.90
2019-05-25T08:52:41.892Z,44.90
2019-05-25T08:55:10.819Z,43.90
2019-05-25T08:57:39.754Z,42.90
2019-05-25T09:00:10.123Z,41.30
2019-05-25T09:02:39.061Z,42.80
2019-05-25T09:05:08.838Z,43.90
2019-05-25T09:07:37.782Z,44.00
2019-05-25T09:10:08.378Z,43.30
2019-05-25T09:12:37.302Z,43.70
2019-05-25T09:15:09.538Z,42.30
2019-05-25T09:17:39.151Z,44.60
2019-05-25T09:20:08.648Z,42.70
2019-05-25T09:22:37.576Z,42.50
2019-05-25T09:25:07.469Z,44.20
2019-05-25T09:27:36.395Z,41.40
2019-05-25T09:30:07.354Z,41.30
2019-05-25T09:32:36.376Z,41.30
2019-05-25T09:35:08.572Z,40.70
2019-05-25T09:37:37.564Z,40.40
2019-05-25T09:40:07.356Z,38.90
2019-05-25T09:42:36.319Z,39.20
2019-05-25T09:45:07.216Z,41.30
2019-05-25T09:47:36.228Z,41.20
2019-05-25T09:50:07.334Z,42.40
2019-05-25T09:52:36.270Z,43.70
2019-05-25T09:55:09.260Z,40.90
2019-05-25T09:57:37.348Z,42.90
2019-05-25T10:00:09.167Z,42.00
2019-05-25T10:02:38.151Z,40.70
2019-05-25T10:05:10.782Z,42.10
2019-05-25T10:07:39.714Z,42.10
2019-05-25T10:10:10.892Z,41.10
2019-05-25T10:12:39.829Z,41.90
2019-05-25T10:15:09.020Z,41.90
2019-05-25T10:17:37.955Z,42.90
2019-05-25T10:20:08.332Z,43.90
2019-05-25T10:22:37.266Z,43.30
2019-05-25T10:25:08.766Z,41.80
2019-05-25T10:27:37.683Z,42.10
2019-05-25T10:30:08.388Z,43.60
2019-05-25T10:32:37.527Z,45.00
2019-05-25T10:35:09.504Z,44.10
2019-05-25T10:37:38.438Z,43.00
2019-05-25T10:40:09.195Z,44.70
2019-05-25T10:42:38.967Z,43.50
2019-05-25T10:45:09.265Z,45.30
2019-05-25T10:47:38.298Z,45.80
2019-05-25T10:50:13.099Z,44.90
2019-05-25T10:52:42.022Z,43.40
2019-05-25T10:55:12.299Z,44.50
2019-05-25T10:57:41.253Z,42.80
2019-05-25T11:00:12.019Z,41.80
2019-05-25T11:02:40.937Z,39.60
2019-05-25T11:05:11.073Z,38.80
2019-05-25T11:07:40.059Z,40.10
2019-05-25T11:10:10.802Z,38.70
2019-05-25T11:12:39.675Z,40.10
2019-05-25T11:15:10.221Z,40.70
2019-05-25T11:17:39.108Z,39.80
2019-05-25T11:20:09.430Z,37.50
2019-05-25T11:22:38.308Z,37.30
2019-05-25T11:25:10.774Z,40.50
2019-05-25T11:27:39.752Z,38.70
2019-05-25T11:30:10.361Z,38.00
2019-05-25T11:32:39.384Z,38.50
2019-05-25T11:35:09.086Z,38.00
2019-05-25T11:40:14.383Z,39.20
2019-05-25T11:42:43.275Z,41.20
2019-05-25T11:45:13.002Z,39.60
2019-05-25T11:47:41.897Z,39.60
2019-05-25T11:50:11.616Z,40.00
2019-05-25T11:52:40.727Z,43.20
2019-05-25T11:55:11.464Z,42.50
2019-05-25T11:57:41.369Z,43.90
2019-05-25T12:00:24.484Z,46.00
2019-05-25T12:02:43.565Z,45.90
2019-05-25T12:05:13.108Z,45.00
2019-05-25T12:07:44.943Z,45.40
2019-05-25T12:10:15.120Z,44.90
2019-05-25T12:12:46.112Z,44.70
2019-05-25T12:15:18.175Z,44.60
2019-05-25T12:17:54.799Z,44.30
2019-05-25T12:20:24.115Z,46.00
2019-05-25T12:22:53.139Z,46.80
2019-05-25T12:25:22.170Z,44.20
2019-05-25T12:27:51.053Z,44.50
2019-05-25T12:30:20.409Z,45.50
2019-05-25T12:32:49.295Z,45.50
2019-05-25T12:35:19.435Z,45.00
2019-05-25T12:37:48.756Z,44.90
2019-05-25T12:40:23.899Z,44.20
2019-05-25T12:42:52.957Z,43.30
2019-05-25T12:45:24.116Z,43.30
2019-05-25T12:47:53.906Z,44.10
2019-05-25T12:50:22.931Z,44.60
2019-05-25T12:52:51.821Z,43.30
2019-05-25T12:55:20.745Z,40.00
2019-05-25T12:57:51.384Z,41.70
2019-05-25T13:00:20.819Z,40.60
2019-05-25T13:02:49.782Z,41.00
2019-05-25T13:05:32.957Z,40.80
2019-05-25T13:07:49.418Z,39.60
2019-05-25T13:10:18.597Z,40.70
2019-05-25T13:12:47.537Z,40.40
2019-05-25T13:15:16.506Z,39.90
2019-05-25T13:17:45.435Z,41.00
2019-05-25T13:20:14.720Z,42.40
2019-05-25T13:22:43.706Z,42.30
2019-05-25T13:25:12.611Z,40.50
2019-05-25T13:27:41.543Z,40.00
2019-05-25T13:30:10.724Z,40.00
2019-05-25T13:32:39.658Z,41.50
2019-05-25T13:35:09.771Z,41.30
2019-05-25T13:37:39.146Z,41.70
2019-05-25T13:40:09.116Z,40.50
2019-05-25T13:42:38.086Z,40.10
2019-05-25T13:45:08.645Z,39.60
2019-05-25T13:47:37.591Z,38.40
2019-05-25T13:50:08.269Z,36.70
2019-05-25T13:52:37.202Z,36.90
2019-05-25T13:55:06.279Z,38.10
2019-05-25T13:57:35.221Z,39.30
2019-05-25T14:00:05.688Z,39.40
2019-05-25T14:02:34.604Z,40.30
2019-05-25T14:05:03.985Z,41.50
2019-05-25T14:07:32.926Z,41.40
2019-05-25T14:10:01.840Z,41.80
2019-05-25T14:12:30.756Z,42.00
2019-05-25T14:14:59.654Z,41.30
2019-05-25T14:17:28.593Z,42.40
2019-05-25T14:19:57.559Z,42.30
2019-05-25T14:22:26.529Z,45.10
2019-05-25T14:24:55.419Z,42.80
2019-05-25T14:27:24.357Z,44.40
2019-05-25T14:29:53.239Z,43.50
2019-05-25T14:32:22.174Z,43.90
2019-05-25T14:34:51.049Z,41.40
2019-05-25T14:37:19.984Z,42.20
2019-05-25T14:39:48.879Z,43.00
2019-05-25T14:42:17.771Z,40.00
2019-05-25T14:44:46.708Z,43.50
2019-05-25T14:47:15.592Z,40.50
2019-05-25T14:49:44.517Z,39.90
2019-05-25T14:52:13.405Z,38.60
2019-05-25T14:54:42.339Z,39.00
2019-05-25T14:57:11.241Z,38.50
2019-05-25T14:59:40.159Z,36.90
2019-05-25T15:02:09.044Z,36.20
2019-05-25T15:04:37.971Z,36.90
2019-05-25T15:07:06.868Z,37.00
2019-05-25T15:09:35.812Z,33.70
2019-05-25T15:12:04.691Z,34.10
2019-05-25T15:14:33.621Z,34.90
2019-05-25T15:17:02.513Z,36.30
2019-05-25T15:19:31.451Z,37.60
2019-05-25T15:22:00.431Z,35.20
2019-05-25T15:24:29.351Z,35.50
2019-05-25T15:26:58.228Z,35.80
2019-05-25T15:29:27.170Z,36.90
2019-05-25T15:31:57.313Z,36.70
2019-05-25T15:34:26.229Z,36.10
2019-05-25T15:36:55.124Z,39.10
2019-05-25T15:39:24.064Z,38.90
2019-05-25T15:41:53.010Z,40.30
2019-05-25T15:44:24.297Z,40.00
2019-05-25T15:46:56.477Z,41.00
2019-05-25T15:49:33.247Z,42.20
2019-05-25T15:51:57.965Z,44.30
2019-05-25T15:54:27.037Z,43.80
2019-05-25T15:56:56.237Z,43.30
2019-05-25T15:59:25.899Z,43.00
2019-05-25T16:01:55.079Z,44.10
2019-05-25T16:04:24.561Z,44.30
2019-05-25T16:06:54.163Z,44.70
2019-05-25T16:09:23.080Z,44.40
2019-05-25T16:11:51.971Z,45.30
2019-05-25T16:14:20.859Z,44.40
2019-05-25T16:16:49.800Z,46.90
2019-05-25T16:19:18.657Z,45.80
2019-05-25T16:21:47.598Z,48.10
2019-05-25T16:24:16.468Z,46.00
2019-05-25T16:26:46.697Z,45.80
2019-05-25T16:29:16.174Z,46.40
2019-05-25T16:31:45.098Z,48.20
2019-05-25T16:34:13.983Z,49.70
2019-05-25T16:36:42.921Z,49.70
2019-05-25T16:39:11.809Z,50.70
2019-05-25T16:41:40.751Z,54.90
2019-05-25T16:44:09.645Z,53.40
2019-05-25T16:46:38.579Z,52.10
2019-05-25T16:49:07.449Z,53.20
2019-05-25T16:51:36.387Z,53.20
2019-05-25T16:54:05.365Z,54.40
2019-05-25T16:56:34.306Z,57.90
2019-05-25T16:59:03.195Z,59.10
2019-05-25T17:01:46.944Z,60.70
2019-05-25T17:04:02.670Z,62.50
2019-05-25T17:06:31.602Z,57.00
2019-05-25T17:09:00.503Z,60.60
2019-05-25T17:11:29.435Z,59.80
2019-05-25T17:13:58.329Z,62.40
2019-05-25T17:16:27.257Z,62.60
2019-05-25T17:18:56.148Z,65.50
2019-05-25T17:21:25.068Z,64.90
2019-05-25T17:23:53.952Z,67.00
2019-05-25T17:26:22.877Z,67.40
2019-05-25T17:28:51.763Z,66.40
2019-05-25T17:31:20.690Z,67.40
2019-05-25T17:33:49.716Z,68.50
2019-05-25T17:36:18.655Z,69.00
2019-05-25T17:38:47.575Z,70.40
2019-05-25T17:41:16.466Z,70.30
2019-05-25T17:43:45.396Z,70.90
2019-05-25T17:46:15.894Z,71.00
2019-05-25T17:48:45.869Z,71.10
2019-05-25T17:51:15.544Z,73.90
2019-05-25T17:53:45.880Z,77.80
2019-05-25T17:56:15.406Z,83.00
2019-05-25T17:58:46.611Z,84.70
2019-05-25T18:01:15.578Z,83.00
2019-05-25T18:04:04.266Z,86.50
2019-05-25T18:06:17.520Z,88.80
2019-05-25T18:08:46.597Z,91.80
2019-05-25T18:11:15.578Z,92.60
2019-05-25T18:13:45.674Z,91.40
2019-05-25T18:16:14.719Z,91.10
2019-05-25T18:18:43.795Z,91.40
2019-05-25T18:21:13.260Z,91.60
2019-05-25T18:23:42.762Z,92.30
2019-05-25T18:26:12.805Z,92.00
2019-05-25T18:28:43.000Z,91.80
2019-05-25T18:31:12.164Z,92.70
2019-05-25T18:33:42.347Z,91.50
2019-05-25T18:36:12.337Z,91.90
2019-05-25T18:38:41.762Z,91.60
2019-05-25T18:41:10.771Z,91.50
2019-05-25T18:43:39.718Z,91.80
2019-05-25T18:46:08.623Z,91.50
2019-05-25T18:48:37.856Z,90.50
2019-05-25T18:51:06.855Z,90.50
2019-05-25T18:53:36.646Z,90.80
2019-05-25T18:56:06.726Z,91.10
2019-05-25T18:58:36.342Z,91.30
2019-05-25T19:01:05.474Z,90.80
2019-05-25T19:03:34.652Z,90.80
2019-05-25T19:06:03.544Z,90.90
2019-05-25T19:08:32.478Z,90.60
2019-05-25T19:11:01.369Z,90.60
2019-05-25T19:13:30.304Z,90.60
2019-05-25T19:15:59.396Z,91.30
2019-05-25T19:18:29.646Z,91.10
2019-05-25T19:20:59.052Z,91.60
2019-05-25T19:23:28.479Z,91.40
2019-05-25T19:25:58.443Z,90.50
2019-05-25T19:28:28.420Z,90.40
2019-05-25T19:30:58.856Z,90.40
2019-05-25T19:33:28.348Z,90.20
2019-05-25T19:35:58.068Z,91.10
2019-05-25T19:38:28.187Z,90.70
2019-05-25T19:40:59.359Z,90.60
2019-05-25T19:43:29.072Z,90.40
2019-05-25T19:46:00.495Z,90.50
2019-05-25T19:48:29.990Z,90.40
2019-05-25T19:50:59.827Z,89.60
2019-05-25T19:53:29.722Z,89.50
2019-05-25T19:55:58.756Z,90.10
2019-05-25T19:58:28.814Z,89.60
2019-05-25T20:00:58.595Z,88.30
2019-05-25T20:03:27.838Z,88.90
2019-05-25T20:05:56.949Z,89.30
2019-05-25T20:08:27.004Z,88.70
2019-05-25T20:10:56.248Z,88.70
2019-05-25T20:13:25.237Z,88.80
2019-05-25T20:15:54.160Z,88.60
2019-05-25T20:18:23.038Z,89.10
2019-05-25T20:20:51.961Z,89.90
2019-05-25T20:23:20.844Z,88.70
2019-05-25T20:25:52.036Z,87.20
2019-05-25T20:28:20.989Z,85.70
2019-05-25T20:30:49.918Z,85.80
2019-05-25T20:33:27.427Z,85.90
2019-05-25T20:35:49.391Z,85.80
2019-05-25T20:38:18.285Z,86.60
2019-05-25T20:40:47.226Z,85.60
2019-05-25T20:43:16.107Z,86.20
2019-05-25T20:45:45.042Z,86.30
2019-05-25T20:48:13.937Z,86.20
2019-05-25T20:50:42.872Z,86.50
2019-05-25T20:53:11.968Z,86.90
2019-05-25T20:55:40.918Z,87.90
2019-05-25T20:58:09.802Z,87.70
2019-05-25T21:00:38.742Z,87.80
2019-05-25T21:03:07.630Z,87.00
2019-05-25T21:05:49.730Z,87.00
2019-05-25T21:08:08.505Z,87.60
2019-05-25T21:10:37.434Z,87.50
2019-05-25T21:13:06.324Z,87.40
2019-05-25T21:15:35.262Z,88.60
2019-05-25T21:18:04.192Z,87.90
2019-05-25T21:20:33.076Z,87.50
2019-05-25T21:23:02.018Z,87.20
2019-05-25T21:25:30.907Z,86.40
2019-05-25T21:27:59.833Z,87.30
2019-05-25T21:30:28.731Z,86.40
2019-05-25T21:32:57.672Z,85.80
2019-05-25T21:35:26.594Z,86.00
2019-05-25T21:37:55.615Z,87.20
2019-05-25T21:40:24.508Z,86.80
2019-05-25T21:42:53.435Z,87.00
2019-05-25T21:45:22.425Z,86.50
2019-05-25T21:47:55.161Z,86.80
2019-05-25T21:50:22.007Z,86.40
2019-05-25T21:52:50.934Z,85.50
2019-05-25T21:55:19.820Z,86.00
2019-05-25T21:57:48.758Z,85.70
2019-05-25T22:00:19.935Z,87.10
2019-05-25T22:02:48.853Z,86.10
2019-05-25T22:05:18.848Z,85.70
2019-05-25T22:07:47.785Z,85.70
2019-05-25T22:10:16.898Z,85.40
2019-05-25T22:12:45.828Z,85.80
2019-05-25T22:15:14.815Z,87.10
2019-05-25T22:17:43.751Z,86.90
2019-05-25T22:20:12.954Z,86.00
2019-05-25T22:22:41.885Z,86.30
2019-05-25T22:25:11.081Z,86.30
2019-05-25T22:27:40.011Z,85.60
2019-05-25T22:30:09.309Z,85.60
2019-05-25T22:32:38.271Z,86.50
2019-05-25T22:35:07.950Z,86.40
2019-05-25T22:37:36.884Z,85.70
2019-05-25T22:40:09.014Z,86.00
2019-05-25T22:42:37.949Z,86.00
2019-05-25T22:45:08.245Z,86.50
2019-05-25T22:47:37.190Z,87.90
2019-05-25T22:50:06.384Z,86.80
2019-05-25T22:52:35.325Z,86.80
2019-05-25T22:55:07.907Z,86.70
2019-05-25T22:57:36.843Z,86.40
2019-05-25T23:00:09.907Z,85.80
2019-05-25T23:02:38.189Z,87.60
2019-05-25T23:05:08.687Z,87.70
2019-05-25T23:07:37.610Z,87.50
2019-05-25T23:10:08.198Z,87.40
2019-05-25T23:12:37.096Z,86.90
2019-05-25T23:15:07.835Z,86.90
2019-05-25T23:17:36.725Z,87.50
2019-05-25T23:20:09.554Z,88.10
2019-05-25T23:22:38.563Z,87.20
2019-05-25T23:25:07.486Z,87.30
2019-05-25T23:27:36.381Z,87.10
2019-05-25T23:30:06.615Z,86.90
2019-05-25T23:32:35.612Z,87.10
2019-05-25T23:35:05.452Z,87.00
2019-05-25T23:37:34.347Z,86.60
2019-05-25T23:40:04.679Z,87.50
2019-05-25T23:42:33.571Z,88.10
2019-05-25T23:45:02.510Z,88.00
2019-05-25T23:47:31.544Z,87.60
2019-05-25T23:50:00.484Z,86.10
2019-05-25T23:52:29.365Z,87.00
2019-05-25T23:54:58.297Z,86.70
2019-05-25T23:57:27.203Z,86.70
2019-05-25T23:59:56.147Z,87.00
